Time;durP1;ratioP1;P1;durP2;ratioP2;P2;SDS_P1;SDS_P2;PMS_P1;PMS_P2;Temp;Humidity;BMP_temperature;BMP_pressure;BME280_temperature;BME280_humidity;BME280_pressure;Samples;Min_cycle;Max_cycle;Signal;HPM_P1;HPM_P2
2022/03/26 00:02:19;;;;;;;49.40;22.90;;;5.20;73.30;;;;;;5243930;28;20040;-71
2022/03/26 00:04:53;;;;;;;42.60;22.40;;;5.20;73.60;;;;;;5245104;28;20043;-70
2022/03/26 00:07:26;;;;;;;43.55;22.52;;;5.10;73.70;;;;;;5226681;28;20055;-71
2022/03/26 00:09:59;;;;;;;45.58;22.27;;;5.20;73.60;;;;;;5230686;28;20051;-69
2022/03/26 00:12:31;;;;;;;49.17;23.15;;;5.20;73.30;;;;;;5235442;28;20048;-70
2022/03/26 00:15:05;;;;;;;44.00;22.05;;;5.20;73.30;;;;;;5238112;28;20523;-71
2022/03/26 00:17:37;;;;;;;42.92;21.35;;;5.10;73.70;;;;;;5235837;28;20109;-71
2022/03/26 00:20:10;;;;;;;42.22;22.30;;;5.00;73.80;;;;;;5235595;28;20048;-71
2022/03/26 00:22:42;;;;;;;44.17;22.00;;;5.00;73.70;;;;;;5227563;28;20464;-71
2022/03/26 00:25:16;;;;;;;46.53;21.92;;;5.00;73.50;;;;;;5241243;28;20044;-70
2022/03/26 00:27:50;;;;;;;;;;;5.00;73.50;;;;;;5224205;28;20051;-70
2022/03/26 00:30:22;;;;;;;41.58;21.10;;;4.80;75.00;;;;;;5205713;28;19924;-68
2022/03/26 00:32:55;;;;;;;42.40;21.38;;;4.70;73.50;;;;;;5245320;28;20052;-70
2022/03/26 00:35:27;;;;;;;48.28;22.17;;;4.80;73.70;;;;;;5237333;28;20530;-70
2022/03/26 00:38:00;;;;;;;48.17;21.05;;;4.70;73.90;;;;;;5247502;28;20048;-70
2022/03/26 00:40:32;;;;;;;45.63;22.25;;;4.70;74.30;;;;;;5248686;28;20048;-70
2022/03/26 00:43:05;;;;;;;48.67;22.17;;;4.60;74.50;;;;;;5227478;28;20049;-70
2022/03/26 00:45:37;;;;;;;43.58;23.00;;;4.50;74.90;;;;;;5248244;28;20064;-70
2022/03/26 00:48:09;;;;;;;38.47;20.42;;;4.40;75.10;;;;;;5222701;28;20055;-70
2022/03/26 00:50:42;;;;;;;46.75;22.48;;;4.40;75.40;;;;;;5240872;28;20052;-70
2022/03/26 00:53:15;;;;;;;43.67;22.08;;;4.30;75.50;;;;;;5231720;28;20063;-70
2022/03/26 00:55:47;;;;;;;45.38;21.08;;;4.30;75.60;;;;;;5242422;28;20048;-70
2022/03/26 00:58:19;;;;;;;51.58;23.15;;;4.20;75.90;;;;;;5241811;28;20040;-71
2022/03/26 01:00:52;;;;;;;48.50;22.60;;;4.20;76.00;;;;;;5243685;28;20044;-69
2022/03/26 01:03:25;;;;;;;45.08;23.15;;;4.10;76.30;;;;;;5259894;28;20045;-71
2022/03/26 01:05:57;;;;;;;46.63;23.08;;;4.00;76.50;;;;;;5243168;28;20055;-69
2022/03/26 01:08:31;;;;;;;47.05;21.70;;;3.90;76.60;;;;;;5219452;28;20059;-70
2022/03/26 01:11:04;;;;;;;46.63;22.73;;;3.90;77.00;;;;;;5228723;28;20064;-69
2022/03/26 01:13:38;;;;;;;46.25;22.17;;;3.90;77.10;;;;;;5238781;28;20116;-70
2022/03/26 01:16:12;;;;;;;46.30;22.98;;;3.90;76.90;;;;;;5245043;28;20048;-70
2022/03/26 01:18:45;;;;;;;43.35;21.98;;;3.90;76.90;;;;;;5244312;28;20082;-71
2022/03/26 01:21:19;;;;;;;45.20;22.80;;;4.00;76.60;;;;;;5242088;28;20048;-69
2022/03/26 01:23:52;;;;;;;49.42;23.65;;;3.90;76.20;;;;;;5203593;28;20688;-69
2022/03/26 01:26:25;;;;;;;56.75;24.05;;;3.90;76.50;;;;;;5253225;28;20153;-70
2022/03/26 01:28:57;;;;;;;56.55;23.13;;;3.80;76.90;;;;;;5242991;28;20044;-71
2022/03/26 01:31:30;;;;;;;51.20;23.65;;;3.60;77.20;;;;;;5242497;28;20051;-70
2022/03/26 01:34:03;;;;;;;47.22;22.35;;;3.60;77.50;;;;;;5231292;28;20518;-70
2022/03/26 01:36:35;;;;;;;42.33;22.23;;;3.60;77.40;;;;;;5243317;28;20743;-70
2022/03/26 01:39:08;;;;;;;46.55;22.42;;;3.60;77.20;;;;;;5247513;28;20499;-69
2022/03/26 01:41:41;;;;;;;50.25;23.42;;;3.50;77.70;;;;;;5256849;22;20475;-70
2022/03/26 01:44:14;;;;;;;46.63;22.27;;;3.40;78.10;;;;;;5253142;28;20384;-70
2022/03/26 01:46:53;;;;;;;44.25;21.92;;;3.40;78.40;;;;;;5248769;28;20055;-68
2022/03/26 01:49:26;;;;;;;43.42;21.13;;;3.40;78.50;;;;;;5246707;28;20049;-70
2022/03/26 01:52:00;;;;;;;44.50;20.42;;;3.40;78.80;;;;;;5251445;28;20044;-70
2022/03/26 01:54:33;;;;;;;45.55;22.42;;;3.40;78.70;;;;;;5250852;28;20048;-70
2022/03/26 01:57:10;;;;;;;44.03;23.07;;;3.50;78.60;;;;;;5233663;28;20285;-69
2022/03/26 01:59:43;;;;;;;46.20;22.15;;;3.40;78.70;;;;;;5254891;28;20321;-70
2022/03/26 02:02:15;;;;;;;42.97;22.45;;;3.20;79.00;;;;;;5249490;28;20502;-69
2022/03/26 02:04:49;;;;;;;42.08;20.98;;;3.20;79.10;;;;;;5244939;28;20039;-70
2022/03/26 02:07:22;;;;;;;47.47;23.30;;;3.30;79.10;;;;;;5232840;28;20617;-70
2022/03/26 02:09:54;;;;;;;45.22;21.80;;;3.40;78.60;;;;;;5251023;28;21058;-70
2022/03/26 02:12:29;;;;;;;51.28;22.85;;;3.30;78.20;;;;;;5231702;28;20052;-70
2022/03/26 02:15:03;;;;;;;47.10;22.73;;;3.20;78.90;;;;;;5249361;28;20055;-69
2022/03/26 02:17:36;;;;;;;51.28;23.10;;;3.20;79.50;;;;;;5249040;28;20048;-69
2022/03/26 02:20:11;;;;;;;44.47;21.90;;;3.20;79.60;;;;;;5244071;28;20048;-70
2022/03/26 02:22:43;;;;;;;47.08;23.58;;;3.30;79.30;;;;;;5249945;28;20066;-70
2022/03/26 02:25:17;;;;;;;48.03;23.77;;;3.20;79.40;;;;;;5226941;28;21311;-70
2022/03/26 02:27:49;;;;;;;;;;;3.20;79.50;;;;;;5229028;28;20055;-70
2022/03/26 02:30:22;;;;;;;42.47;22.10;;;3.00;82.00;;;;;;5253550;28;19928;-70
2022/03/26 02:32:55;;;;;;;44.03;22.70;;;3.10;79.80;;;;;;5249394;28;20459;-71
2022/03/26 02:35:27;;;;;;;45.42;23.05;;;3.00;79.90;;;;;;5251703;28;20052;-70
2022/03/26 02:38:00;;;;;;;49.30;22.90;;;3.10;79.80;;;;;;5253309;28;20048;-70
2022/03/26 02:40:32;;;;;;;45.58;21.70;;;3.00;79.90;;;;;;5236874;28;20056;-71
2022/03/26 02:43:08;;;;;;;42.03;21.60;;;3.00;80.20;;;;;;5243566;28;20332;-68
2022/03/26 02:45:44;;;;;;;43.35;22.65;;;3.00;80.20;;;;;;5251047;28;20051;-69
2022/03/26 02:48:17;;;;;;;47.22;21.80;;;2.90;80.30;;;;;;5247493;28;20051;-70
2022/03/26 02:50:49;;;;;;;48.97;24.20;;;2.90;80.40;;;;;;5252331;28;20051;-70
2022/03/26 02:53:27;;;;;;;43.20;21.38;;;2.80;80.60;;;;;;5252522;28;20097;-69
2022/03/26 02:55:59;;;;;;;47.22;22.45;;;2.80;80.70;;;;;;5242679;28;20040;-69
2022/03/26 02:58:32;;;;;;;48.15;22.20;;;2.90;80.70;;;;;;5251591;28;20048;-70
2022/03/26 03:01:04;;;;;;;43.85;20.40;;;2.90;80.30;;;;;;5244206;28;20494;-71
2022/03/26 03:03:37;;;;;;;43.85;21.70;;;2.80;80.70;;;;;;5243628;28;20040;-69
2022/03/26 03:06:09;;;;;;;45.10;21.90;;;2.80;80.90;;;;;;5224138;28;20043;-71
2022/03/26 03:08:42;;;;;;;42.20;22.58;;;2.80;80.80;;;;;;5253954;28;20917;-70
2022/03/26 03:11:14;;;;;;;48.15;22.95;;;2.70;80.90;;;;;;5247415;28;20056;-69
2022/03/26 03:13:47;;;;;;;52.60;23.50;;;2.70;81.40;;;;;;5250353;28;20048;-70
2022/03/26 03:16:19;;;;;;;47.83;23.88;;;2.70;81.50;;;;;;5248493;28;20048;-70
2022/03/26 03:18:52;;;;;;;46.85;22.83;;;2.60;81.70;;;;;;5233270;28;20051;-69
2022/03/26 03:21:24;;;;;;;47.30;23.70;;;2.60;82.20;;;;;;5249865;28;20048;-70
2022/03/26 03:23:57;;;;;;;45.30;22.58;;;2.60;82.40;;;;;;5256025;28;20102;-68
2022/03/26 03:26:29;;;;;;;43.87;23.00;;;2.60;81.80;;;;;;5234112;28;20055;-70
2022/03/26 03:29:02;;;;;;;49.88;23.80;;;2.60;81.70;;;;;;5251159;28;20048;-69
2022/03/26 03:31:37;;;;;;;46.88;22.92;;;2.50;81.90;;;;;;5246029;28;20059;-69
2022/03/26 03:34:09;;;;;;;42.28;20.83;;;2.40;82.20;;;;;;5252032;28;20040;-69
2022/03/26 03:36:42;;;;;;;41.42;20.98;;;2.50;82.60;;;;;;5252391;28;20040;-69
2022/03/26 03:39:14;;;;;;;49.58;21.73;;;2.50;82.20;;;;;;5235225;28;20999;-70
2022/03/26 03:41:47;;;;;;;44.00;21.40;;;2.50;82.30;;;;;;5230047;28;20047;-70
2022/03/26 03:44:19;;;;;;;46.78;23.40;;;2.40;82.70;;;;;;5257101;28;20051;-71
2022/03/26 03:46:52;;;;;;;45.42;22.25;;;2.40;82.20;;;;;;5252930;28;20051;-69
2022/03/26 03:49:26;;;;;;;48.80;23.63;;;2.50;82.10;;;;;;5254032;28;20503;-70
2022/03/26 03:51:59;;;;;;;44.28;22.10;;;2.40;82.00;;;;;;5205107;28;20801;-69
2022/03/26 03:54:31;;;;;;;48.28;23.00;;;2.30;82.50;;;;;;5255100;28;20797;-69
2022/03/26 03:57:04;;;;;;;48.60;23.55;;;2.30;83.10;;;;;;5225870;28;20048;-70
2022/03/26 03:59:40;;;;;;;49.17;23.45;;;2.20;83.20;;;;;;5252364;28;20044;-69
2022/03/26 04:02:13;;;;;;;47.63;22.33;;;2.20;83.70;;;;;;5216980;28;20044;-70
2022/03/26 04:04:45;;;;;;;52.15;22.88;;;2.10;84.40;;;;;;5241614;28;20040;-70
2022/03/26 04:07:18;;;;;;;42.42;23.00;;;2.20;84.10;;;;;;5259326;28;20632;-69
2022/03/26 04:09:50;;;;;;;49.10;22.65;;;2.20;84.30;;;;;;5261507;28;20052;-70
2022/03/26 04:12:23;;;;;;;45.28;23.20;;;2.10;84.40;;;;;;5226652;28;20048;-70
2022/03/26 04:14:55;;;;;;;43.42;22.20;;;2.00;84.40;;;;;;5257622;28;20055;-69
2022/03/26 04:17:28;;;;;;;57.50;22.63;;;2.10;84.40;;;;;;5249444;28;20405;-69
2022/03/26 04:20:06;;;;;;;46.30;21.77;;;2.10;84.20;;;;;;5251966;28;20044;-70
2022/03/26 04:22:39;;;;;;;45.70;22.42;;;2.20;84.60;;;;;;5249866;28;20396;-69
2022/03/26 04:25:12;;;;;;;46.42;22.40;;;2.10;84.50;;;;;;5243352;28;20066;-69
2022/03/26 04:27:46;;;;;;;44.47;22.50;;;2.00;84.80;;;;;;5254187;28;20051;-70
2022/03/26 04:30:20;;;;;;;46.08;21.42;;;2.00;84.80;;;;;;5239423;28;20040;-70
2022/03/26 04:32:52;;;;;;;47.03;21.73;;;2.10;84.80;;;;;;5253010;28;20048;-69
2022/03/26 04:35:26;;;;;;;40.70;21.10;;;2.10;84.50;;;;;;5222467;28;20075;-70
2022/03/26 04:37:59;;;;;;;47.10;21.60;;;2.20;84.00;;;;;;5253748;28;20055;-69
2022/03/26 04:40:32;;;;;;;43.45;21.00;;;2.10;83.70;;;;;;5223139;28;20435;-69
2022/03/26 04:43:04;;;;;;;42.72;22.45;;;2.10;83.60;;;;;;5250308;28;20389;-69
2022/03/26 04:45:37;;;;;;;52.15;22.75;;;2.10;83.60;;;;;;5250852;28;20035;-70
2022/03/26 04:48:09;;;;;;;48.05;22.98;;;2.00;83.80;;;;;;5253295;28;20040;-70
2022/03/26 04:50:42;;;;;;;50.72;22.52;;;1.90;84.50;;;;;;5254474;28;20511;-70
2022/03/26 04:53:14;;;;;;;59.15;25.92;;;1.90;84.60;;;;;;5243864;28;20051;-69
2022/03/26 04:55:46;;;;;;;50.50;23.38;;;1.90;84.90;;;;;;5240209;28;20522;-70
2022/03/26 04:58:19;;;;;;;54.85;22.85;;;1.90;85.20;;;;;;5220947;28;20583;-70
2022/03/26 05:00:51;;;;;;;46.53;22.83;;;1.90;85.00;;;;;;5219761;28;20059;-69
2022/03/26 05:03:24;;;;;;;46.58;22.40;;;1.90;84.80;;;;;;5211967;28;20571;-70
2022/03/26 05:05:56;;;;;;;49.38;23.23;;;1.90;84.30;;;;;;5241899;28;20510;-70
2022/03/26 05:08:29;;;;;;;49.75;22.40;;;1.80;84.60;;;;;;5248048;28;20059;-71
2022/03/26 05:11:01;;;;;;;49.70;22.77;;;1.80;85.40;;;;;;5253438;28;20063;-71
2022/03/26 05:13:34;;;;;;;49.03;22.25;;;1.70;85.70;;;;;;5255024;28;20047;-70
2022/03/26 05:16:07;;;;;;;50.88;23.70;;;1.70;85.80;;;;;;5255985;28;20810;-72
2022/03/26 05:18:40;;;;;;;;;;;1.70;85.30;;;;;;5245553;28;20055;-71
2022/03/26 05:21:12;;;;;;;48.47;23.13;;;1.60;89.80;;;;;;5211866;28;19931;-71
2022/03/26 05:23:45;;;;;;;52.75;23.90;;;1.60;85.20;;;;;;5241111;28;20040;-71
2022/03/26 05:26:21;;;;;;;44.90;22.90;;;1.60;85.40;;;;;;5242524;28;20055;-71
2022/03/26 05:28:54;;;;;;;52.30;24.90;;;1.70;85.50;;;;;;5224713;28;20783;-71
2022/03/26 05:31:26;;;;;;;52.03;23.73;;;1.70;85.70;;;;;;5238024;28;20056;-71
2022/03/26 05:33:59;;;;;;;44.13;21.90;;;1.70;85.80;;;;;;5244936;28;20052;-71
2022/03/26 05:36:31;;;;;;;62.65;25.00;;;1.70;86.10;;;;;;5237439;28;20052;-71
2022/03/26 05:39:04;;;;;;;52.63;23.38;;;1.80;85.80;;;;;;5248286;28;20431;-71
2022/03/26 05:41:36;;;;;;;51.88;23.52;;;1.70;86.60;;;;;;5222109;28;20044;-71
2022/03/26 05:44:08;;;;;;;53.17;24.55;;;1.70;86.70;;;;;;5243175;28;20044;-70
2022/03/26 05:46:41;;;;;;;51.53;23.20;;;1.90;86.30;;;;;;5241562;28;20048;-71
2022/03/26 05:49:13;;;;;;;49.97;23.92;;;2.00;85.70;;;;;;5214693;28;20048;-71
2022/03/26 05:51:46;;;;;;;53.03;24.83;;;2.00;85.70;;;;;;5230314;28;20043;-71
2022/03/26 05:54:18;;;;;;;48.50;23.33;;;2.00;85.60;;;;;;5225129;28;20063;-70
2022/03/26 05:56:53;;;;;;;53.83;23.73;;;2.00;85.40;;;;;;5248141;28;20062;-71
2022/03/26 05:59:30;;;;;;;55.35;23.45;;;2.20;85.60;;;;;;5227127;28;20043;-71
2022/03/26 06:02:02;;;;;;;47.65;21.90;;;2.20;85.90;;;;;;5220552;28;20048;-70
2022/03/26 06:04:35;;;;;;;50.33;24.08;;;2.20;85.50;;;;;;5204170;28;20586;-70
2022/03/26 06:07:08;;;;;;;54.22;25.88;;;2.30;85.30;;;;;;5228150;28;20048;-71
2022/03/26 06:09:40;;;;;;;54.60;24.63;;;2.40;85.20;;;;;;5204277;28;20047;-71
2022/03/26 06:12:13;;;;;;;54.72;25.85;;;2.40;85.60;;;;;;5201550;28;20286;-71
2022/03/26 06:14:46;;;;;;;49.05;24.15;;;2.40;85.40;;;;;;5232120;28;20047;-70
2022/03/26 06:17:18;;;;;;;47.67;23.40;;;2.60;85.00;;;;;;5211498;28;20052;-70
2022/03/26 06:19:51;;;;;;;55.50;25.63;;;2.70;84.40;;;;;;5194819;28;20058;-71
2022/03/26 06:22:23;;;;;;;50.70;25.55;;;2.80;84.20;;;;;;5218869;28;20059;-70
2022/03/26 06:24:56;;;;;;;52.80;25.35;;;3.00;83.90;;;;;;5195013;28;20235;-70
2022/03/26 06:27:29;;;;;;;48.15;24.77;;;3.20;83.90;;;;;;5221038;28;20040;-70
2022/03/26 06:30:02;;;;;;;52.10;25.35;;;3.30;84.00;;;;;;5213196;28;20044;-69
2022/03/26 06:32:35;;;;;;;55.65;25.73;;;3.40;84.30;;;;;;5217828;28;20048;-71
2022/03/26 06:35:08;;;;;;;53.88;25.08;;;3.50;84.20;;;;;;5220362;28;20044;-70
2022/03/26 06:37:40;;;;;;;59.07;26.00;;;3.60;83.70;;;;;;5184260;28;20123;-70
2022/03/26 06:40:13;;;;;;;57.72;26.25;;;3.70;83.40;;;;;;5199882;28;25909;-71
2022/03/26 06:42:45;;;;;;;56.35;26.35;;;3.90;83.10;;;;;;5204878;28;20052;-70
2022/03/26 06:45:21;;;;;;;59.28;27.88;;;4.10;82.70;;;;;;5201663;28;20055;-70
2022/03/26 06:47:54;;;;;;;52.90;26.55;;;4.20;82.30;;;;;;5222495;28;20523;-70
2022/03/26 06:50:27;;;;;;;58.50;27.85;;;4.30;82.20;;;;;;5216855;28;20056;-71
2022/03/26 06:52:59;;;;;;;59.93;28.20;;;4.50;81.90;;;;;;5216970;28;20059;-70
2022/03/26 06:55:32;;;;;;;60.95;28.75;;;4.60;81.50;;;;;;5201635;28;20074;-71
2022/03/26 06:58:04;;;;;;;59.25;29.15;;;4.80;80.90;;;;;;5220237;28;20939;-70
2022/03/26 07:00:37;;;;;;;57.60;28.83;;;4.90;80.00;;;;;;5200541;28;20522;-69
2022/03/26 07:03:09;;;;;;;64.53;29.65;;;5.20;79.90;;;;;;5201814;28;20048;-71
2022/03/26 07:05:42;;;;;;;61.28;30.20;;;5.40;79.10;;;;;;5219663;28;20056;-71
2022/03/26 07:08:14;;;;;;;64.17;29.43;;;5.50;78.30;;;;;;5216278;28;20538;-70
2022/03/26 07:10:47;;;;;;;69.32;29.65;;;5.70;77.70;;;;;;5206463;28;20047;-71
2022/03/26 07:13:20;;;;;;;61.30;30.15;;;5.90;77.10;;;;;;5220954;28;20051;-70
2022/03/26 07:15:52;;;;;;;61.25;29.02;;;6.10;75.90;;;;;;5234390;28;20059;-69
2022/03/26 07:18:25;;;;;;;73.25;32.05;;;6.30;75.60;;;;;;5226498;28;20060;-70
2022/03/26 07:21:00;;;;;;;70.40;34.25;;;6.40;74.40;;;;;;5242912;28;20861;-71
2022/03/26 07:23:32;;;;;;;79.25;33.63;;;6.50;74.20;;;;;;5240406;28;20047;-70
2022/03/26 07:26:05;;;;;;;68.10;33.25;;;6.50;73.80;;;;;;5213466;28;20040;-71
2022/03/26 07:28:38;;;;;;;69.05;32.72;;;6.70;73.80;;;;;;5240510;28;20029;-69
2022/03/26 07:31:10;;;;;;;64.78;31.50;;;6.90;73.20;;;;;;5241196;28;20499;-72
2022/03/26 07:33:43;;;;;;;67.80;30.45;;;7.10;72.20;;;;;;5222712;28;20537;-70
2022/03/26 07:36:15;;;;;;;73.50;33.85;;;7.20;72.10;;;;;;5240196;28;20040;-71
2022/03/26 07:38:48;;;;;;;74.60;33.08;;;7.40;70.90;;;;;;5236228;28;20051;-71
2022/03/26 07:41:21;;;;;;;74.22;34.92;;;7.50;70.50;;;;;;5224902;28;20051;-72
2022/03/26 07:43:54;;;;;;;75.55;33.10;;;7.60;70.50;;;;;;5236298;28;20059;-70
2022/03/26 07:46:26;;;;;;;65.22;31.92;;;7.80;70.30;;;;;;5231046;28;20504;-73
2022/03/26 07:48:59;;;;;;;68.85;32.00;;;8.10;69.70;;;;;;5238782;28;20059;-70
2022/03/26 07:51:32;;;;;;;78.95;35.40;;;8.20;69.10;;;;;;5236598;28;20044;-69
2022/03/26 07:54:04;;;;;;;69.20;33.78;;;8.50;67.60;;;;;;5239954;28;20051;-70
2022/03/26 07:56:37;;;;;;;73.32;33.95;;;8.70;67.70;;;;;;5236427;28;20051;-70
2022/03/26 07:59:10;;;;;;;73.18;35.80;;;8.80;67.50;;;;;;5217848;28;20918;-70
2022/03/26 08:01:42;;;;;;;72.03;32.90;;;8.80;67.70;;;;;;5231627;28;20040;-69
2022/03/26 08:04:15;;;;;;;74.30;35.28;;;9.00;66.60;;;;;;5237817;28;20078;-70
2022/03/26 08:06:47;;;;;;;68.35;34.20;;;9.10;66.30;;;;;;5215388;28;20048;-71
2022/03/26 08:09:20;;;;;;;70.60;33.72;;;9.20;65.90;;;;;;5215539;28;20056;-69
2022/03/26 08:11:52;;;;;;;76.53;35.45;;;9.30;65.80;;;;;;5248017;28;21267;-72
2022/03/26 08:14:25;;;;;;;68.97;34.20;;;9.40;65.60;;;;;;5247280;28;20059;-72
2022/03/26 08:16:57;;;;;;;67.85;33.28;;;9.50;65.20;;;;;;5242698;28;20044;-70
2022/03/26 08:19:30;;;;;;;67.78;31.50;;;9.60;65.20;;;;;;5250813;28;20427;-70
2022/03/26 08:22:03;;;;;;;66.35;32.58;;;9.80;64.90;;;;;;5243094;28;20048;-73
2022/03/26 08:24:35;;;;;;;68.57;32.95;;;9.90;65.00;;;;;;5255673;28;20053;-72
2022/03/26 08:27:08;;;;;;;77.60;34.83;;;10.00;64.00;;;;;;5246820;28;20491;-72
2022/03/26 08:29:40;;;;;;;66.85;32.65;;;10.10;63.70;;;;;;5257044;28;20036;-72
2022/03/26 08:32:13;;;;;;;66.10;32.85;;;10.20;63.70;;;;;;5252531;28;20048;-72
2022/03/26 08:34:45;;;;;;;64.78;31.60;;;10.30;63.30;;;;;;5253675;28;20459;-71
2022/03/26 08:37:18;;;;;;;67.05;31.35;;;10.40;63.30;;;;;;5256632;28;20044;-72
2022/03/26 08:39:50;;;;;;;67.70;32.72;;;10.50;63.20;;;;;;5229405;28;20494;-71
2022/03/26 08:42:23;;;;;;;69.85;31.60;;;10.40;63.10;;;;;;5250655;28;20613;-72
2022/03/26 08:44:57;;;;;;;66.80;33.38;;;10.50;62.90;;;;;;5250217;28;20048;-72
2022/03/26 08:47:29;;;;;;;67.25;32.15;;;10.60;63.20;;;;;;5251630;28;20052;-71
2022/03/26 08:50:02;;;;;;;67.05;31.73;;;10.70;63.00;;;;;;5253450;28;20048;-69
2022/03/26 08:52:37;;;;;;;69.32;32.03;;;10.70;63.00;;;;;;5264100;22;20051;-71
2022/03/26 08:55:09;;;;;;;67.57;33.97;;;10.80;62.80;;;;;;5220594;28;20052;-71
2022/03/26 08:57:43;;;;;;;65.82;31.00;;;10.90;62.60;;;;;;5209446;28;20052;-71
2022/03/26 09:00:17;;;;;;;67.28;34.47;;;11.10;62.30;;;;;;5245967;28;20506;-72
2022/03/26 09:02:50;;;;;;;66.30;32.53;;;11.10;61.80;;;;;;5234935;28;20403;-71
2022/03/26 09:05:23;;;;;;;67.43;33.08;;;11.20;61.60;;;;;;5228209;28;20044;-71
2022/03/26 09:07:55;;;;;;;66.85;32.25;;;11.30;61.70;;;;;;5230056;28;20037;-71
2022/03/26 09:10:28;;;;;;;67.82;32.15;;;11.50;61.50;;;;;;5237071;28;20438;-70
2022/03/26 09:13:01;;;;;;;69.25;32.42;;;11.60;60.50;;;;;;5232645;28;20099;-71
2022/03/26 09:15:34;;;;;;;71.50;33.38;;;11.80;60.90;;;;;;5238729;28;20044;-71
2022/03/26 09:18:06;;;;;;;65.53;32.25;;;12.00;60.10;;;;;;5227078;28;22034;-71
2022/03/26 09:20:39;;;;;;;64.30;33.08;;;12.20;59.70;;;;;;5235809;28;20088;-72
2022/03/26 09:23:11;;;;;;;71.25;34.72;;;12.20;59.00;;;;;;5230081;28;21246;-72
2022/03/26 09:25:44;;;;;;;73.68;32.42;;;12.20;58.80;;;;;;5237973;28;20060;-70
2022/03/26 09:28:16;;;;;;;62.78;32.75;;;12.20;59.10;;;;;;5232701;28;20507;-70
2022/03/26 09:30:50;;;;;;;68.40;33.40;;;12.40;59.00;;;;;;5219334;28;20040;-71
2022/03/26 09:33:22;;;;;;;68.93;34.22;;;12.50;58.60;;;;;;5239149;28;20058;-70
2022/03/26 09:35:55;;;;;;;67.97;33.40;;;12.50;58.00;;;;;;5215815;28;20238;-70
2022/03/26 09:38:31;;;;;;;68.18;33.60;;;12.60;58.60;;;;;;5220176;28;20554;-72
2022/03/26 09:41:05;;;;;;;71.53;34.00;;;12.80;59.00;;;;;;5216203;28;20048;-71
2022/03/26 09:43:43;;;;;;;68.72;33.92;;;12.80;58.50;;;;;;5198504;28;20102;-72
2022/03/26 09:46:15;;;;;;;68.53;32.80;;;12.90;58.40;;;;;;5227653;28;20044;-71
2022/03/26 09:48:49;;;;;;;65.75;34.63;;;13.00;57.50;;;;;;5206562;28;20045;-70
2022/03/26 09:51:24;;;;;;;67.85;33.22;;;13.00;57.00;;;;;;5234968;28;20058;-72
2022/03/26 09:53:56;;;;;;;67.80;32.78;;;13.10;57.00;;;;;;5235019;28;20048;-70
2022/03/26 09:56:29;;;;;;;68.55;32.67;;;13.10;56.30;;;;;;5216260;28;20048;-70
2022/03/26 09:59:01;;;;;;;61.13;30.88;;;13.20;56.20;;;;;;5238659;28;20044;-72
2022/03/26 10:01:34;;;;;;;75.70;32.95;;;13.20;56.20;;;;;;5228748;28;20674;-70
2022/03/26 10:04:09;;;;;;;62.75;30.75;;;13.30;56.80;;;;;;5239809;28;20052;-72
2022/03/26 10:06:56;;;;;;;66.00;32.17;;;13.50;56.50;;;;;;5240033;28;20455;-73
2022/03/26 10:09:40;;;;;;;59.17;31.15;;;13.60;54.30;;;;;;5245522;28;20052;-75
2022/03/26 10:12:24;;;;;;;68.07;31.38;;;13.60;54.40;;;;;;5243491;28;20047;-73
2022/03/26 10:15:04;;;;;;;62.65;33.08;;;13.70;54.30;;;;;;5220370;28;20052;-70
2022/03/26 10:17:37;;;;;;;67.88;30.98;;;13.80;54.30;;;;;;5228555;28;20118;-72
2022/03/26 10:20:14;;;;;;;70.95;32.47;;;13.90;54.30;;;;;;5239118;28;20048;-72
2022/03/26 10:22:50;;;;;;;70.65;32.50;;;14.10;53.90;;;;;;5235399;28;20424;-71
2022/03/26 10:25:23;;;;;;;66.13;32.30;;;14.20;53.30;;;;;;5238176;28;20048;-71
2022/03/26 10:27:57;;;;;;;67.13;31.97;;;14.30;53.00;;;;;;5220957;28;20055;-74
2022/03/26 10:33:30;;;;;;;70.43;32.83;;;14.60;52.80;;;;;;5234529;28;20583;-73
2022/03/26 10:36:03;;;;;;;68.53;31.90;;;14.80;52.40;;;;;;5201292;28;20056;-70
2022/03/26 10:38:42;;;;;;;60.20;32.00;;;14.90;51.70;;;;;;5226093;28;20060;-71
2022/03/26 10:41:30;;;;;;;67.82;32.70;;;14.90;51.20;;;;;;5223375;28;20048;-71
2022/03/26 10:44:11;;;;;;;64.40;31.80;;;15.00;51.00;;;;;;5234522;28;20044;-72
2022/03/26 10:46:51;;;;;;;67.85;31.75;;;15.10;51.40;;;;;;5241876;28;20051;-71
2022/03/26 10:49:32;;;;;;;63.50;29.77;;;15.30;51.30;;;;;;5240863;28;20036;-71
2022/03/26 10:52:13;;;;;;;60.58;28.50;;;15.40;49.80;;;;;;5240813;28;20091;-71
2022/03/26 10:54:47;;;;;;;66.57;31.23;;;15.50;49.70;;;;;;5240866;28;20040;-71
2022/03/26 10:57:24;;;;;;;;;;;15.50;50.00;;;;;;5249025;28;20044;-72
2022/03/26 10:59:58;;;;;;;62.85;31.25;;;15.60;49.00;;;;;;5247661;28;20368;-72
2022/03/26 11:02:30;;;;;;;57.25;29.25;;;15.80;50.50;;;;;;5245506;28;20059;-71
2022/03/26 11:05:03;;;;;;;55.42;28.73;;;15.90;49.70;;;;;;5234266;28;20067;-71
2022/03/26 11:07:38;;;;;;;49.20;26.95;;;16.10;47.90;;;;;;5226298;28;20039;-70
2022/03/26 11:10:12;;;;;;;53.25;27.00;;;16.20;47.50;;;;;;5228641;28;20047;-71
2022/03/26 11:12:47;;;;;;;49.72;25.77;;;16.40;46.10;;;;;;5223747;28;20715;-72
2022/03/26 11:15:42;;;;;;;48.70;26.85;;;16.50;45.60;;;;;;5226753;28;20491;-71
2022/03/26 11:18:52;;;;;;;50.38;27.02;;;16.50;43.30;;;;;;5225421;28;20055;-72
2022/03/26 11:21:50;;;;;;;57.28;26.85;;;16.60;43.30;;;;;;5201347;28;20055;-73
2022/03/26 11:25:08;;;;;;;50.55;25.50;;;16.70;43.00;;;;;;5218174;28;20058;-72
2022/03/26 11:28:03;;;;;;;49.03;26.00;;;16.90;42.50;;;;;;5204055;28;21219;-73
2022/03/26 11:30:47;;;;;;;46.53;25.70;;;17.00;42.50;;;;;;5216243;28;20054;-72
2022/03/26 11:33:20;;;;;;;;;;;17.20;42.60;;;;;;5234185;28;20462;-72
2022/03/26 11:35:57;;;;;;;46.00;24.35;;;17.50;41.60;;;;;;5214920;28;19923;-71
2022/03/26 11:38:31;;;;;;;45.13;23.67;;;17.90;41.60;;;;;;5217307;28;20040;-73
2022/03/26 11:41:07;;;;;;;;;;;18.40;41.00;;;;;;5229753;28;20057;-71
2022/03/26 11:43:42;;;;;;;46.75;25.85;;;18.70;37.80;;;;;;5214448;28;19931;-72
2022/03/26 11:52:25;;;;;;;56.97;25.15;;;19.80;37.40;;;;;;5231222;28;20086;-72
2022/03/26 11:55:07;;;;;;;49.13;27.20;;;20.10;37.30;;;;;;5216341;28;20041;-71
2022/03/26 11:57:39;;;;;;;44.83;25.83;;;20.60;38.30;;;;;;5205762;28;20049;-72
2022/03/26 12:00:20;;;;;;;45.05;26.45;;;20.80;37.40;;;;;;5225895;28;20055;-73
2022/03/26 12:02:53;;;;;;;48.05;27.05;;;20.60;37.00;;;;;;5231159;28;20048;-73
2022/03/26 12:08:18;;;;;;;44.22;28.17;;;20.80;36.90;;;;;;5228295;28;20594;-73
2022/03/26 12:10:51;;;;;;;45.58;28.30;;;21.20;37.30;;;;;;5223364;28;20221;-73
2022/03/26 12:13:23;;;;;;;52.60;28.58;;;21.60;36.90;;;;;;5218594;28;20051;-73
2022/03/26 12:16:03;;;;;;;51.35;29.40;;;21.90;36.60;;;;;;5235463;28;20052;-72
2022/03/26 12:18:38;;;;;;;51.83;29.17;;;22.10;35.60;;;;;;5215961;28;20075;-74
2022/03/26 12:21:21;;;;;;;43.50;27.23;;;22.20;35.80;;;;;;5226214;28;20044;-73
2022/03/26 12:23:54;;;;;;;47.97;28.48;;;22.20;35.90;;;;;;5230240;28;20032;-73
2022/03/26 12:26:26;;;;;;;48.63;28.15;;;22.20;35.80;;;;;;5215480;28;20052;-73
2022/03/26 12:29:02;;;;;;;48.72;27.85;;;22.40;35.60;;;;;;5217834;28;20052;-73
2022/03/26 12:31:35;;;;;;;44.47;27.08;;;22.50;35.80;;;;;;5227265;28;20063;-73
2022/03/26 12:34:07;;;;;;;49.10;29.13;;;22.50;35.20;;;;;;5225359;28;20052;-73
2022/03/26 12:36:40;;;;;;;50.40;27.83;;;22.60;34.90;;;;;;5235113;28;20047;-72
2022/03/26 12:39:12;;;;;;;51.03;30.98;;;22.60;34.70;;;;;;5241074;28;20075;-73
2022/03/26 12:41:48;;;;;;;47.17;26.50;;;22.70;35.00;;;;;;5212733;28;20032;-71
2022/03/26 12:44:22;;;;;;;44.92;26.92;;;22.90;33.70;;;;;;5233240;28;20067;-73
2022/03/26 12:46:56;;;;;;;46.17;28.27;;;22.80;34.30;;;;;;5222974;28;21578;-72
2022/03/26 12:49:28;;;;;;;49.67;26.77;;;23.00;34.20;;;;;;5232506;28;20595;-73
2022/03/26 12:52:01;;;;;;;46.35;28.10;;;23.00;34.20;;;;;;5220986;28;20050;-74
2022/03/26 12:54:34;;;;;;;51.28;29.05;;;23.00;34.50;;;;;;5219700;28;20147;-75
2022/03/26 12:57:10;;;;;;;43.90;27.15;;;23.20;34.30;;;;;;5208838;28;20044;-73
2022/03/26 12:59:54;;;;;;;44.70;27.00;;;23.60;34.40;;;;;;5215643;28;20036;-74
2022/03/26 13:02:28;;;;;;;40.75;25.10;;;23.80;32.30;;;;;;5215064;28;20044;-72
2022/03/26 13:05:01;;;;;;;41.30;24.30;;;23.60;33.20;;;;;;5188855;28;20036;-73
2022/03/26 13:07:40;;;;;;;48.25;27.45;;;23.80;32.80;;;;;;5224204;28;20048;-72
2022/03/26 13:10:15;;;;;;;46.85;25.90;;;23.70;32.90;;;;;;5221594;28;20055;-74
2022/03/26 13:12:48;;;;;;;48.60;27.67;;;24.10;32.60;;;;;;5192494;28;20055;-74
2022/03/26 13:15:20;;;;;;;43.42;26.42;;;24.50;32.50;;;;;;5223179;28;20037;-72
2022/03/26 13:18:01;;;;;;;40.03;25.90;;;24.40;32.50;;;;;;5232969;28;20435;-74
2022/03/26 13:20:38;;;;;;;37.58;24.58;;;24.40;32.20;;;;;;5182151;28;20049;-75
2022/03/26 13:23:14;;;;;;;40.08;25.23;;;24.70;31.70;;;;;;5230621;28;20056;-73